Time;durP1;ratioP1;P1;durP2;ratioP2;P2;SDS_P1;SDS_P2;PMS_P1;PMS_P2;Temp;Humidity;BMP_temperature;BMP_pressure;BME280_temperature;BME280_humidity;BME280_pressure;Samples;Min_cycle;Max_cycle;Signal;HPM_P1;HPM_P2
2023/09/13 00:01:56;;;;;;;0.00;0.00;;;16.70;99.90;;;;;;5075485;28;20518;-80
2023/09/13 00:04:22;;;;;;;0.10;0.10;;;16.60;99.90;;;;;;5042131;28;20025;-80
2023/09/13 00:06:48;;;;;;;0.22;0.22;;;16.50;99.90;;;;;;5059670;28;20031;-77
2023/09/13 00:09:14;;;;;;;0.00;0.00;;;19.70;99.90;;;;;;5042619;28;20025;-75
2023/09/13 00:11:40;;;;;;;0.00;0.00;;;16.30;99.90;;;;;;5059709;28;20112;-77
2023/09/13 00:14:05;;;;;;;0.17;0.17;;;16.30;99.90;;;;;;5059291;28;20504;-77
2023/09/13 00:16:31;;;;;;;0.10;0.10;;;16.30;99.90;;;;;;5059052;28;20050;-77
2023/09/13 00:18:59;;;;;;;0.10;0.10;;;16.30;99.90;;;;;;5041338;28;20028;-76
2023/09/13 00:21:25;;;;;;;0.10;0.10;;;16.30;99.90;;;;;;5058978;28;20032;-75
2023/09/13 00:23:51;;;;;;;0.03;0.03;;;16.30;99.90;;;;;;5058980;28;20025;-77
2023/09/13 00:26:16;;;;;;;1.38;1.27;;;16.30;99.90;;;;;;5059230;28;20501;-77
2023/09/13 00:28:43;;;;;;;0.05;0.05;;;16.30;99.90;;;;;;5059704;28;20021;-76
2023/09/13 00:31:09;;;;;;;0.68;0.68;;;19.40;99.90;;;;;;5074037;28;20068;-76
2023/09/13 00:33:37;;;;;;;0.08;0.08;;;16.30;99.90;;;;;;5040612;28;20223;-76
2023/09/13 00:36:03;;;;;;;0.00;0.00;;;16.30;99.90;;;;;;5059340;28;20190;-76
2023/09/13 00:38:29;;;;;;;0.00;0.00;;;16.20;99.90;;;;;;5059768;28;20182;-77
2023/09/13 00:40:56;;;;;;;0.00;0.00;;;16.30;99.90;;;;;;5026047;28;20564;-76
2023/09/13 00:43:21;;;;;;;0.10;0.10;;;16.20;99.90;;;;;;5060844;28;20272;-77
2023/09/13 00:45:50;;;;;;;0.10;0.10;;;16.20;99.90;;;;;;5060117;28;20440;-76
2023/09/13 00:48:17;;;;;;;0.10;0.10;;;16.20;99.90;;;;;;5040995;28;20035;-79
2023/09/13 00:50:44;;;;;;;0.10;0.10;;;16.20;99.90;;;;;;5058731;28;20085;-76
2023/09/13 00:53:10;;;;;;;0.22;0.22;;;16.20;99.90;;;;;;5040705;28;20418;-80
2023/09/13 00:55:37;;;;;;;0.00;0.00;;;16.20;99.90;;;;;;5058959;28;20108;-76
2023/09/13 00:58:05;;;;;;;0.77;0.77;;;16.20;99.90;;;;;;5040413;28;20037;-76
2023/09/13 01:00:34;;;;;;;0.30;0.30;;;16.10;99.90;;;;;;5040254;28;20043;-76
2023/09/13 01:03:01;;;;;;;5.75;5.15;;;16.20;99.90;;;;;;5040139;28;20370;-75
2023/09/13 01:05:27;;;;;;;1.27;1.27;;;16.00;99.90;;;;;;5040759;28;20637;-75
2023/09/13 01:07:53;;;;;;;1.48;1.40;;;16.00;99.90;;;;;;5058076;28;20028;-78
2023/09/13 01:10:19;;;;;;;0.00;0.00;;;16.00;99.90;;;;;;5058320;28;20028;-75
2023/09/13 01:12:46;;;;;;;0.10;0.10;;;16.00;99.90;;;;;;5073519;28;20067;-75
2023/09/13 01:15:12;;;;;;;0.10;0.10;;;15.80;99.90;;;;;;5058070;28;20217;-76
2023/09/13 01:18:03;;;;;;;0.10;0.10;;;15.80;99.90;;;;;;5058367;28;20518;-77
2023/09/13 01:20:50;;;;;;;0.20;0.20;;;15.70;99.90;;;;;;5039914;28;20048;-76
2023/09/13 01:23:34;;;;;;;0.63;0.63;;;15.60;99.90;;;;;;5057372;28;20032;-75
2023/09/13 01:26:08;;;;;;;0.10;0.10;;;15.60;99.90;;;;;;5041083;28;20028;-77
2023/09/13 01:28:42;;;;;;;0.10;0.10;;;15.50;99.90;;;;;;5057622;28;20036;-76
2023/09/13 01:31:09;;;;;;;0.10;0.10;;;15.50;99.90;;;;;;5057885;28;20028;-76
2023/09/13 01:33:36;;;;;;;0.10;0.10;;;15.40;99.90;;;;;;5039873;28;20333;-75
2023/09/13 01:36:03;;;;;;;0.10;0.10;;;15.40;99.90;;;;;;5040566;28;20021;-83
2023/09/13 01:38:29;;;;;;;0.10;0.10;;;15.30;99.90;;;;;;5062891;28;20032;-76
2023/09/13 01:41:22;;;;;;;1.00;1.00;;;15.40;99.90;;;;;;5062749;28;20020;-75
2023/09/13 01:43:53;;;;;;;0.32;0.32;;;15.30;99.90;;;;;;4964110;28;20031;-76
2023/09/13 01:46:20;;;;;;;0.10;0.10;;;15.30;99.90;;;;;;4964423;28;20042;-77
2023/09/13 01:48:46;;;;;;;12.10;11.55;;;15.20;99.90;;;;;;4963498;28;20034;-76
2023/09/13 01:51:13;;;;;;;0.10;0.10;;;15.10;99.90;;;;;;4979285;28;20034;-76
2023/09/13 01:53:44;;;;;;;3.85;3.70;;;15.00;99.90;;;;;;4979057;28;20038;-77
2023/09/13 01:56:09;;;;;;;0.00;0.00;;;15.10;99.90;;;;;;4979114;28;20323;-77
2023/09/13 01:58:35;;;;;;;0.00;0.00;;;15.00;99.90;;;;;;4978987;28;20058;-78
2023/09/13 02:01:01;;;;;;;0.10;0.10;;;15.00;99.90;;;;;;4979510;28;20081;-76
2023/09/13 02:03:27;;;;;;;0.47;0.47;;;15.00;99.90;;;;;;4978631;28;20070;-81
2023/09/13 02:05:52;;;;;;;0.28;0.28;;;15.00;99.90;;;;;;4962954;28;20264;-75
2023/09/13 02:08:18;;;;;;;0.73;0.73;;;15.00;99.90;;;;;;4962062;28;20042;-76
2023/09/13 02:10:48;;;;;;;3.15;2.85;;;15.00;99.90;;;;;;4978654;28;20027;-77
2023/09/13 02:13:13;;;;;;;0.00;0.00;;;15.00;99.90;;;;;;4962611;28;20088;-76
2023/09/13 02:15:40;;;;;;;0.10;0.10;;;15.00;99.90;;;;;;4962147;28;20760;-76
2023/09/13 02:18:06;;;;;;;1.85;1.70;;;15.00;99.90;;;;;;4979049;28;20121;-76
2023/09/13 02:20:32;;;;;;;0.10;0.10;;;14.90;99.90;;;;;;5011955;28;20489;-76
2023/09/13 02:22:58;;;;;;;0.00;0.00;;;14.90;99.90;;;;;;5061058;28;20032;-79
2023/09/13 02:25:23;;;;;;;0.20;0.20;;;14.90;99.90;;;;;;5061762;28;20663;-76
2023/09/13 02:27:49;;;;;;;0.00;0.00;;;14.80;99.90;;;;;;5061429;28;20044;-77
2023/09/13 02:30:17;;;;;;;0.00;0.00;;;14.80;99.90;;;;;;5061212;28;20051;-75
2023/09/13 02:32:43;;;;;;;0.00;0.00;;;14.70;99.90;;;;;;5061572;28;20092;-75
2023/09/13 02:35:23;;;;;;;0.10;0.10;;;14.70;99.90;;;;;;5059770;28;20025;-75
2023/09/13 02:37:49;;;;;;;0.00;0.00;;;14.70;99.90;;;;;;5060330;28;20032;-76
2023/09/13 02:40:15;;;;;;;0.10;0.10;;;14.70;99.90;;;;;;5060293;28;20016;-77
2023/09/13 02:42:41;;;;;;;1.65;1.55;;;14.70;99.90;;;;;;5060506;28;20025;-76
2023/09/13 02:45:08;;;;;;;0.00;0.00;;;14.70;99.90;;;;;;5060515;28;20479;-77
2023/09/13 02:47:34;;;;;;;0.00;0.00;;;14.70;99.90;;;;;;5042662;28;20533;-77
2023/09/13 02:50:00;;;;;;;0.00;0.00;;;14.70;99.90;;;;;;5060541;28;20024;-76
2023/09/13 02:52:30;;;;;;;0.00;0.00;;;14.70;99.90;;;;;;5069116;28;20031;-77
2023/09/13 02:54:57;;;;;;;0.17;0.17;;;14.70;99.90;;;;;;5045102;28;20510;-77
2023/09/13 02:57:23;;;;;;;0.00;0.00;;;13.30;99.90;;;;;;5061816;28;20517;-76
2023/09/13 02:59:49;;;;;;;0.00;0.00;;;14.70;99.90;;;;;;5042744;28;20048;-76
2023/09/13 03:02:15;;;;;;;0.00;0.00;;;14.70;99.90;;;;;;5059900;28;20037;-76
2023/09/13 03:04:41;;;;;;;0.10;0.10;;;14.70;99.90;;;;;;5060529;28;20039;-76
2023/09/13 03:07:08;;;;;;;2.10;2.00;;;11.40;99.90;;;;;;5042677;28;20060;-80
2023/09/13 03:09:33;;;;;;;2.17;1.38;;;14.70;99.90;;;;;;5026017;28;20025;-76
2023/09/13 03:11:59;;;;;;;0.10;0.10;;;14.60;99.90;;;;;;5059918;28;20021;-79
2023/09/13 03:14:25;;;;;;;0.00;0.00;;;14.60;99.90;;;;;;5059114;28;20127;-77
2023/09/13 03:16:51;;;;;;;0.00;0.00;;;14.50;99.90;;;;;;5059610;28;20060;-77
2023/09/13 03:19:17;;;;;;;0.03;0.03;;;14.40;99.90;;;;;;5059053;28;20017;-75
2023/09/13 03:21:44;;;;;;;0.10;0.10;;;14.40;99.90;;;;;;5074547;28;20256;-76
2023/09/13 03:24:10;;;;;;;0.10;0.10;;;14.40;99.90;;;;;;5041782;28;20104;-77
2023/09/13 03:26:36;;;;;;;2.28;2.17;;;14.30;99.90;;;;;;5074446;28;20213;-76
2023/09/13 03:29:02;;;;;;;0.35;0.35;;;14.40;99.90;;;;;;5059098;28;20089;-76
2023/09/13 03:31:28;;;;;;;0.00;0.00;;;14.40;99.90;;;;;;5059159;28;20055;-76
2023/09/13 03:33:56;;;;;;;0.00;0.00;;;14.40;99.90;;;;;;5059225;28;20105;-76
2023/09/13 03:36:24;;;;;;;0.05;0.05;;;14.40;99.90;;;;;;5041254;28;20212;-77
2023/09/13 03:38:50;;;;;;;0.00;0.00;;;14.40;99.90;;;;;;5059445;28;20033;-78
2023/09/13 03:41:21;;;;;;;0.10;0.10;;;14.30;99.90;;;;;;5059622;28;20513;-77
2023/09/13 03:43:47;;;;;;;0.00;0.00;;;14.30;99.90;;;;;;5042900;28;20055;-77
2023/09/13 03:46:13;;;;;;;0.10;0.10;;;14.30;99.90;;;;;;5059677;28;20324;-76
2023/09/13 03:48:39;;;;;;;0.00;0.00;;;14.30;99.90;;;;;;5059323;28;20206;-79
2023/09/13 03:51:07;;;;;;;0.10;0.10;;;14.20;99.90;;;;;;5040936;28;20043;-77
2023/09/13 03:53:34;;;;;;;0.00;0.00;;;14.30;99.90;;;;;;5061831;28;20024;-81
2023/09/13 03:56:00;;;;;;;0.00;0.00;;;14.20;99.90;;;;;;5061571;28;20289;-78
2023/09/13 03:58:26;;;;;;;0.00;0.00;;;14.20;99.90;;;;;;5060304;28;20406;-77
2023/09/13 04:00:53;;;;;;;0.10;0.10;;;14.10;99.90;;;;;;5061079;28;20031;-80
2023/09/13 04:03:20;;;;;;;0.10;0.10;;;14.10;99.90;;;;;;5060560;28;20427;-78
2023/09/13 04:05:46;;;;;;;0.65;0.65;;;14.10;99.90;;;;;;5042251;28;20077;-77
2023/09/13 04:08:12;;;;;;;0.00;0.00;;;14.10;99.90;;;;;;5060840;28;20035;-80
2023/09/13 04:10:38;;;;;;;0.10;0.10;;;14.10;99.90;;;;;;5026579;28;20025;-85
2023/09/13 04:13:05;;;;;;;0.00;0.00;;;14.10;99.90;;;;;;5063549;28;20313;-77
2023/09/13 04:15:31;;;;;;;0.13;0.13;;;14.00;99.90;;;;;;5063662;28;20013;-83
2023/09/13 04:17:57;;;;;;;0.10;0.10;;;14.00;99.90;;;;;;5072742;28;20032;-79
2023/09/13 04:20:23;;;;;;;0.10;0.10;;;14.00;99.90;;;;;;5053305;28;20032;-81
2023/09/13 04:22:49;;;;;;;0.00;0.00;;;14.00;99.90;;;;;;5073007;28;20024;-79
2023/09/13 04:25:16;;;;;;;0.10;0.10;;;13.90;99.90;;;;;;5069442;28;20066;-77
2023/09/13 04:27:46;;;;;;;0.10;0.10;;;13.90;99.90;;;;;;5066377;28;20047;-82
2023/09/13 04:30:13;;;;;;;0.05;0.05;;;13.90;99.90;;;;;;5064052;28;20017;-77
2023/09/13 04:32:39;;;;;;;0.00;0.00;;;13.90;99.90;;;;;;5062635;28;20024;-78
2023/09/13 04:35:14;;;;;;;0.10;0.10;;;13.90;99.90;;;;;;5043093;28;20099;-78
2023/09/13 04:37:41;;;;;;;0.10;0.10;;;13.00;99.90;;;;;;5059574;28;20044;-86
2023/09/13 04:40:07;;;;;;;0.08;0.08;;;13.80;99.90;;;;;;5058286;28;20320;-77
2023/09/13 04:42:42;;;;;;;0.00;0.00;;;13.80;99.90;;;;;;5058909;28;20398;-76
2023/09/13 04:45:09;;;;;;;0.00;0.00;;;;;;;;;;5041661;28;20021;-79
2023/09/13 04:47:36;;;;;;;0.10;0.10;;;13.70;99.90;;;;;;5040628;28;20034;-79
2023/09/13 04:50:02;;;;;;;0.05;0.05;;;13.70;99.90;;;;;;5058356;28;20326;-81
2023/09/13 04:52:28;;;;;;;14.15;8.88;;;13.70;99.90;;;;;;5058249;28;20024;-80
2023/09/13 04:54:54;;;;;;;0.10;0.10;;;13.70;99.90;;;;;;5058412;28;20425;-79
2023/09/13 04:57:19;;;;;;;0.00;0.00;;;13.70;99.90;;;;;;5039296;28;20072;-76
2023/09/13 04:59:50;;;;;;;0.10;0.10;;;13.70;99.90;;;;;;5057145;28;20242;-79
2023/09/13 05:02:15;;;;;;;0.00;0.00;;;13.70;99.90;;;;;;5036397;28;20060;-75
2023/09/13 05:04:42;;;;;;;0.00;0.00;;;13.70;99.90;;;;;;5037197;28;20048;-76
2023/09/13 05:07:08;;;;;;;0.00;0.00;;;13.70;99.90;;;;;;5057655;28;20017;-85
2023/09/13 05:09:37;;;;;;;0.10;0.10;;;13.70;99.90;;;;;;5058305;28;20514;-76
2023/09/13 05:12:03;;;;;;;0.20;0.20;;;13.70;99.90;;;;;;5060286;28;20179;-76
2023/09/13 05:14:29;;;;;;;0.05;0.05;;;13.70;99.90;;;;;;5061801;28;20052;-76
2023/09/13 05:16:55;;;;;;;0.10;0.10;;;13.40;99.90;;;;;;5077947;28;20473;-79
2023/09/13 05:19:21;;;;;;;0.10;0.10;;;13.80;99.90;;;;;;5062346;28;20437;-78
2023/09/13 05:21:47;;;;;;;0.00;0.00;;;13.40;99.90;;;;;;5061581;28;20032;-82
2023/09/13 05:24:13;;;;;;;0.10;0.10;;;12.80;99.90;;;;;;5060923;28;20052;-74
2023/09/13 05:26:39;;;;;;;0.00;0.00;;;13.80;99.90;;;;;;5060817;28;20055;-76
2023/09/13 05:29:04;;;;;;;0.10;0.10;;;13.80;99.90;;;;;;5060980;28;20529;-76
2023/09/13 05:31:31;;;;;;;0.10;0.10;;;14.00;99.90;;;;;;5060629;28;20080;-76
2023/09/13 05:33:57;;;;;;;0.10;0.10;;;14.00;99.90;;;;;;5042888;28;20021;-80
2023/09/13 05:36:23;;;;;;;0.10;0.10;;;14.00;99.90;;;;;;5060737;28;20054;-76
2023/09/13 05:38:49;;;;;;;0.10;0.10;;;14.10;99.90;;;;;;5060612;28;20051;-75
2023/09/13 05:41:15;;;;;;;0.10;0.10;;;14.10;99.90;;;;;;5043464;28;20078;-76
2023/09/13 05:43:42;;;;;;;0.10;0.10;;;13.80;99.90;;;;;;5043071;28;20025;-76
2023/09/13 05:46:09;;;;;;;0.00;0.00;;;14.30;99.90;;;;;;5042873;28;20429;-75
2023/09/13 05:48:35;;;;;;;0.10;0.10;;;14.30;99.90;;;;;;5060320;28;20020;-76
2023/09/13 05:51:02;;;;;;;0.10;0.10;;;11.20;99.90;;;;;;5060400;28;20031;-76
2023/09/13 05:53:29;;;;;;;0.00;0.00;;;14.50;99.90;;;;;;5060469;28;20536;-75
2023/09/13 05:55:54;;;;;;;0.13;0.13;;;14.60;99.90;;;;;;5060432;28;20315;-75
2023/09/13 05:58:20;;;;;;;0.00;0.00;;;14.60;99.90;;;;;;5060654;28;20119;-76
2023/09/13 06:00:47;;;;;;;0.00;0.00;;;14.60;99.90;;;;;;5060923;28;20301;-76
2023/09/13 06:03:15;;;;;;;8.68;7.47;;;14.70;99.90;;;;;;5042744;28;20424;-76
2023/09/13 06:05:41;;;;;;;0.10;0.10;;;14.80;99.90;;;;;;5060480;28;20036;-75
2023/09/13 06:08:07;;;;;;;0.10;0.10;;;14.90;99.90;;;;;;5060713;28;20028;-76
2023/09/13 06:10:32;;;;;;;0.10;0.10;;;15.10;99.90;;;;;;5061250;28;20481;-76
2023/09/13 06:12:58;;;;;;;0.10;0.10;;;15.20;99.90;;;;;;5061260;28;20081;-76
2023/09/13 06:15:24;;;;;;;0.10;0.10;;;15.30;99.90;;;;;;5060613;28;20497;-78
2023/09/13 06:17:54;;;;;;;0.10;0.10;;;;;;;;;;5061293;28;20547;-76
2023/09/13 06:20:21;;;;;;;0.10;0.10;;;15.40;99.90;;;;;;5060143;28;20400;-76
2023/09/13 06:22:47;;;;;;;0.10;0.10;;;15.50;99.90;;;;;;5042396;28;20581;-76
2023/09/13 06:25:16;;;;;;;0.20;0.20;;;15.60;99.90;;;;;;5059857;28;20154;-75
2023/09/13 06:27:45;;;;;;;0.05;0.05;;;15.80;99.90;;;;;;5076211;28;20322;-76
2023/09/13 06:30:13;;;;;;;0.10;0.10;;;15.90;99.90;;;;;;5060094;28;20104;-75
2023/09/13 06:32:39;;;;;;;1.08;1.08;;;16.10;99.90;;;;;;5041774;28;20029;-77
2023/09/13 06:35:08;;;;;;;0.00;0.00;;;16.30;99.90;;;;;;5041532;28;20017;-76
2023/09/13 06:37:34;;;;;;;0.20;0.20;;;16.40;99.90;;;;;;5041021;28;20418;-75
2023/09/13 06:40:00;;;;;;;0.20;0.20;;;16.60;99.90;;;;;;5074780;28;20089;-76
2023/09/13 06:42:25;;;;;;;0.95;0.95;;;16.80;99.90;;;;;;5059310;28;20055;-76
2023/09/13 06:44:52;;;;;;;0.75;0.75;;;16.90;99.90;;;;;;5074772;28;20025;-78
2023/09/13 06:47:17;;;;;;;2.50;1.85;;;17.00;99.90;;;;;;5059014;28;20401;-77
2023/09/13 06:49:43;;;;;;;0.00;0.00;;;17.20;99.90;;;;;;5058309;28;20494;-74
2023/09/13 06:52:09;;;;;;;0.10;0.10;;;17.20;99.90;;;;;;5041358;28;20468;-74
2023/09/13 06:54:35;;;;;;;0.47;0.47;;;17.00;99.90;;;;;;5058744;28;20359;-76
2023/09/13 06:57:00;;;;;;;0.10;0.10;;;17.50;99.90;;;;;;5074115;28;20024;-76
2023/09/13 06:59:26;;;;;;;0.10;0.10;;;17.70;99.90;;;;;;5058662;28;20024;-76
2023/09/13 07:01:52;;;;;;;0.47;0.47;;;17.80;99.90;;;;;;5058318;28;20158;-75
2023/09/13 07:04:18;;;;;;;0.00;0.00;;;18.00;99.90;;;;;;5058736;28;20264;-80
2023/09/13 07:06:43;;;;;;;0.52;0.52;;;17.80;99.90;;;;;;5074451;28;20027;-76
2023/09/13 07:09:09;;;;;;;0.10;0.10;;;18.20;99.90;;;;;;5059130;28;20013;-77
2023/09/13 07:11:35;;;;;;;0.10;0.10;;;19.50;99.90;;;;;;5073911;28;20031;-76
2023/09/13 07:14:01;;;;;;;0.25;0.25;;;18.60;99.90;;;;;;5074175;28;20013;-76
2023/09/13 07:16:27;;;;;;;0.20;0.20;;;18.70;99.90;;;;;;5058645;28;20440;-77
2023/09/13 07:18:55;;;;;;;0.10;0.10;;;18.90;99.90;;;;;;5073773;28;20020;-75
2023/09/13 07:21:21;;;;;;;1.25;0.95;;;19.00;99.90;;;;;;5058208;28;20463;-75
2023/09/13 07:23:47;;;;;;;0.13;0.13;;;19.10;99.90;;;;;;5074096;28;20020;-76
2023/09/13 07:26:12;;;;;;;0.03;0.03;;;19.30;99.90;;;;;;5073775;28;20035;-76
2023/09/13 07:28:38;;;;;;;0.20;0.20;;;19.40;99.90;;;;;;5058049;28;20031;-75
2023/09/13 07:31:09;;;;;;;0.20;0.20;;;19.40;99.90;;;;;;5073514;28;20043;-75
2023/09/13 07:33:35;;;;;;;0.00;0.00;;;19.60;99.90;;;;;;5039504;28;20033;-76
2023/09/13 07:36:00;;;;;;;0.75;0.75;;;19.50;99.90;;;;;;5073178;28;20443;-75
2023/09/13 07:38:26;;;;;;;0.00;0.00;;;19.80;99.90;;;;;;5023528;28;20028;-76
2023/09/13 07:40:52;;;;;;;1.13;1.05;;;20.10;99.90;;;;;;5057760;28;20028;-76
2023/09/13 07:43:18;;;;;;;18.52;3.30;;;20.30;99.90;;;;;;5039462;28;20040;-76
2023/09/13 07:45:46;;;;;;;0.00;0.00;;;20.50;99.90;;;;;;5073307;28;20074;-76
2023/09/13 07:48:11;;;;;;;1.08;0.30;;;20.60;99.90;;;;;;5040059;28;20282;-75
2023/09/13 07:50:42;;;;;;;0.10;0.10;;;20.80;99.90;;;;;;5057697;28;20245;-76
2023/09/13 07:53:10;;;;;;;0.20;0.20;;;21.00;99.90;;;;;;5057710;28;20247;-77
2023/09/13 07:55:36;;;;;;;0.00;0.00;;;18.00;99.90;;;;;;5039473;28;20032;-76
2023/09/13 07:58:03;;;;;;;0.52;0.25;;;20.90;99.90;;;;;;5057833;28;20103;-78
2023/09/13 08:00:29;;;;;;;0.00;0.00;;;21.40;99.90;;;;;;5057578;28;20051;-76
2023/09/13 08:03:02;;;;;;;0.43;0.43;;;21.60;99.90;;;;;;5040430;28;20101;-75
2023/09/13 08:05:28;;;;;;;;;;;21.70;99.90;;;;;;5041139;28;20028;-76
2023/09/13 08:07:54;;;;;;;0.55;0.55;;;21.90;99.90;;;;;;5058419;28;19922;-76
2023/09/13 08:10:22;;;;;;;0.57;0.57;;;22.10;99.70;;;;;;5057477;28;20106;-76
2023/09/13 08:12:48;;;;;;;1.65;1.48;;;22.20;99.40;;;;;;5022794;28;20020;-76
2023/09/13 08:15:14;;;;;;;0.98;0.45;;;22.30;99.20;;;;;;5039542;28;20498;-76
2023/09/13 08:17:40;;;;;;;0.10;0.10;;;22.60;99.10;;;;;;5056951;28;20043;-76
2023/09/13 08:20:09;;;;;;;0.10;0.10;;;22.70;98.90;;;;;;5038928;28;20506;-77
2023/09/13 08:22:37;;;;;;;0.00;0.00;;;22.90;98.00;;;;;;5058097;28;20032;-76
2023/09/13 08:25:04;;;;;;;0.70;0.70;;;23.10;97.60;;;;;;5039645;28;20016;-76
2023/09/13 08:27:30;;;;;;;0.20;0.20;;;20.70;96.80;;;;;;5057924;28;20049;-76
2023/09/13 08:29:57;;;;;;;0.00;0.00;;;25.00;97.40;;;;;;5037027;28;20037;-75
2023/09/13 08:32:23;;;;;;;0.68;0.63;;;23.40;96.70;;;;;;5052335;28;20048;-79
2023/09/13 08:34:49;;;;;;;0.05;0.05;;;21.90;94.80;;;;;;5058297;28;20448;-76
2023/09/13 08:37:15;;;;;;;0.30;0.30;;;21.30;94.90;;;;;;5057260;28;20037;-75
2023/09/13 08:39:41;;;;;;;0.00;0.00;;;23.90;94.80;;;;;;5041257;28;20028;-78
2023/09/13 08:42:08;;;;;;;0.00;0.00;;;24.10;94.70;;;;;;5059399;28;20021;-77
2023/09/13 08:44:35;;;;;;;0.03;0.03;;;24.30;94.80;;;;;;5063645;28;20028;-77
2023/09/13 08:47:04;;;;;;;0.00;0.00;;;24.20;93.60;;;;;;5030197;28;20285;-78
2023/09/13 08:49:31;;;;;;;0.10;0.10;;;24.50;93.60;;;;;;5068297;28;20025;-76
2023/09/13 08:51:58;;;;;;;1.65;1.55;;;24.70;93.90;;;;;;5048030;28;20020;-75
2023/09/13 08:54:29;;;;;;;0.30;0.30;;;24.70;93.00;;;;;;5046087;28;20521;-76
2023/09/13 08:56:57;;;;;;;0.00;0.00;;;25.10;92.40;;;;;;5062993;28;20032;-78
2023/09/13 08:59:22;;;;;;;0.10;0.10;;;25.20;92.50;;;;;;5030096;28;20548;-79
2023/09/13 09:01:50;;;;;;;0.52;0.50;;;25.50;92.00;;;;;;5063806;28;20184;-77
2023/09/13 09:04:18;;;;;;;0.20;0.05;;;26.80;91.40;;;;;;5044754;28;20444;-77
2023/09/13 09:06:44;;;;;;;0.10;0.10;;;25.90;90.30;;;;;;5064499;28;20028;-78
2023/09/13 09:09:18;;;;;;;4.25;1.00;;;26.10;89.80;;;;;;5050724;28;20024;-77
2023/09/13 09:11:49;;;;;;;0.65;0.65;;;26.00;87.70;;;;;;5067126;28;20206;-77
2023/09/13 09:14:16;;;;;;;0.10;0.10;;;26.10;87.80;;;;;;5048543;28;20027;-77
2023/09/13 09:16:44;;;;;;;1.35;1.25;;;26.30;87.90;;;;;;5067644;28;20608;-78
2023/09/13 09:19:10;;;;;;;0.00;0.00;;;26.50;86.70;;;;;;5048676;28;20021;-77
2023/09/13 09:21:40;;;;;;;0.05;0.05;;;26.60;86.00;;;;;;5067112;28;20028;-81
2023/09/13 09:24:06;;;;;;;0.13;0.13;;;26.80;86.20;;;;;;5070425;28;20521;-77
2023/09/13 09:26:32;;;;;;;1.65;0.80;;;26.80;83.90;;;;;;5067019;28;20516;-77
2023/09/13 09:29:12;;;;;;;0.10;0.10;;;28.30;85.20;;;;;;5065655;28;20242;-77
2023/09/13 09:31:39;;;;;;;0.57;0.57;;;27.30;79.30;;;;;;5062357;28;20028;-76
2023/09/13 09:34:05;;;;;;;0.10;0.10;;;27.50;76.10;;;;;;5043380;28;20110;-76
2023/09/13 09:36:38;;;;;;;2.97;2.22;;;27.50;73.10;;;;;;5060012;28;20027;-76
2023/09/13 09:39:04;;;;;;;;;;;27.00;71.40;;;;;;5043992;28;20185;-77
2023/09/13 09:41:32;;;;;;;0.13;0.13;;;27.80;71.20;;;;;;5060642;28;20400;-75
2023/09/13 09:43:59;;;;;;;0.32;0.32;;;28.00;71.70;;;;;;5060558;28;20031;-78
2023/09/13 09:46:25;;;;;;;0.70;0.28;;;28.10;71.30;;;;;;5060886;28;20051;-75
2023/09/13 09:48:52;;;;;;;0.20;0.20;;;28.10;70.80;;;;;;5060965;28;20035;-78
2023/09/13 09:51:18;;;;;;;0.45;0.45;;;28.30;70.90;;;;;;5060865;28;20108;-78
2023/09/13 09:53:44;;;;;;;0.00;0.00;;;28.60;71.30;;;;;;5059724;28;20036;-75
2023/09/13 09:56:15;;;;;;;0.10;0.10;;;28.50;71.50;;;;;;5041870;28;20186;-76
2023/09/13 09:58:41;;;;;;;0.00;0.00;;;28.70;70.00;;;;;;5042365;28;20110;-78
2023/09/13 10:01:08;;;;;;;0.00;0.00;;;28.70;68.00;;;;;;5061083;28;20478;-77
2023/09/13 10:03:34;;;;;;;0.00;0.00;;;28.80;68.80;;;;;;5026176;28;20048;-77
2023/09/13 10:06:13;;;;;;;0.00;0.00;;;28.80;68.80;;;;;;5061528;28;20092;-77
2023/09/13 10:08:40;;;;;;;0.98;0.93;;;28.80;68.40;;;;;;5060410;28;20028;-77
2023/09/13 10:11:08;;;;;;;1.08;0.90;;;29.00;71.30;;;;;;5061687;28;20078;-78
2023/09/13 10:13:35;;;;;;;0.30;0.20;;;29.30;69.10;;;;;;5044708;28;20020;-77
2023/09/13 10:16:01;;;;;;;0.20;0.20;;;29.40;69.10;;;;;;5063452;28;20045;-77
2023/09/13 10:18:30;;;;;;;0.00;0.00;;;29.60;68.10;;;;;;5062652;28;20025;-77
2023/09/13 10:21:00;;;;;;;0.75;0.40;;;29.60;67.30;;;;;;5045282;28;20036;-77
2023/09/13 10:23:43;;;;;;;0.15;0.15;;;30.40;67.80;;;;;;5062975;28;20029;-77
2023/09/13 10:26:13;;;;;;;0.08;0.08;;;29.70;65.30;;;;;;5064249;28;20482;-77
2023/09/13 10:28:42;;;;;;;0.22;0.22;;;29.70;65.60;;;;;;5061646;28;20056;-77
2023/09/13 10:31:18;;;;;;;0.22;0.22;;;29.70;64.60;;;;;;5062147;28;20056;-77
2023/09/13 10:33:50;;;;;;;0.47;0.47;;;29.80;65.00;;;;;;5043412;28;20029;-78
2023/09/13 10:36:40;;;;;;;0.00;0.00;;;29.90;64.90;;;;;;5060958;28;20095;-77
2023/09/13 10:39:28;;;;;;;0.75;0.55;;;30.10;63.10;;;;;;5042635;28;20040;-77
2023/09/13 10:42:04;;;;;;;0.10;0.10;;;31.10;64.10;;;;;;5043403;28;20086;-77
2023/09/13 10:44:33;;;;;;;0.20;0.20;;;30.60;63.20;;;;;;5062012;28;20035;-77
2023/09/13 10:46:59;;;;;;;0.38;0.32;;;30.90;65.10;;;;;;5027101;28;20521;-80
2023/09/13 10:49:25;;;;;;;3.15;2.38;;;31.10;63.70;;;;;;5043331;28;20021;-75
2023/09/13 10:51:53;;;;;;;0.00;0.00;;;31.20;63.70;;;;;;5043898;28;20021;-77
2023/09/13 10:54:20;;;;;;;0.20;0.20;;;31.30;62.30;;;;;;5043887;28;20482;-78
2023/09/13 10:56:49;;;;;;;0.10;0.10;;;31.50;60.90;;;;;;5042803;28;20024;-76
2023/09/13 10:59:18;;;;;;;0.15;0.15;;;31.50;60.40;;;;;;5044409;28;20479;-77
2023/09/13 11:01:47;;;;;;;0.00;0.00;;;31.60;61.10;;;;;;5061526;28;20028;-75
2023/09/13 11:04:25;;;;;;;0.00;0.00;;;31.70;59.10;;;;;;5061197;28;20021;-77
2023/09/13 11:06:53;;;;;;;0.00;0.00;;;31.70;56.80;;;;;;5043968;28;20027;-77
2023/09/13 11:09:31;;;;;;;0.00;0.00;;;31.70;56.30;;;;;;5041318;28;20024;-75
2023/09/13 11:11:59;;;;;;;0.00;0.00;;;31.70;55.80;;;;;;5062524;28;20089;-78
2023/09/13 11:14:27;;;;;;;0.00;0.00;;;31.70;54.90;;;;;;5060831;28;20107;-76
2023/09/13 11:16:53;;;;;;;0.38;0.20;;;31.80;55.60;;;;;;5043982;28;20039;-75
2023/09/13 11:19:28;;;;;;;0.52;0.50;;;31.80;55.20;;;;;;5060162;28;20043;-76
2023/09/13 11:22:07;;;;;;;0.08;0.08;;;32.10;55.40;;;;;;5060313;28;20070;-75
2023/09/13 11:24:40;;;;;;;0.32;0.30;;;32.20;55.00;;;;;;5045145;28;20309;-76
2023/09/13 11:27:14;;;;;;;0.03;0.03;;;32.10;54.60;;;;;;5042638;28;20037;-76
2023/09/13 11:29:52;;;;;;;0.05;0.05;;;32.50;54.50;;;;;;5059779;28;20565;-75
2023/09/13 11:32:28;;;;;;;1.15;0.38;;;32.80;55.20;;;;;;5054619;28;20305;-76
2023/09/13 11:34:58;;;;;;;0.45;0.28;;;33.00;54.10;;;;;;5060520;28;20214;-76
2023/09/13 11:37:25;;;;;;;0.43;0.43;;;33.10;53.50;;;;;;5059074;28;20623;-76
2023/09/13 11:39:55;;;;;;;0.10;0.10;;;33.40;53.90;;;;;;5059432;28;20017;-76
2023/09/13 11:42:28;;;;;;;0.00;0.00;;;33.10;54.30;;;;;;5042482;28;20036;-76
2023/09/13 11:44:58;;;;;;;0.22;0.22;;;33.10;53.20;;;;;;5077290;28;20074;-75
2023/09/13 11:47:44;;;;;;;0.08;0.08;;;33.10;54.00;;;;;;5060835;28;20031;-75
2023/09/13 11:50:12;;;;;;;0.40;0.40;;;33.10;54.10;;;;;;5018097;28;20399;-76
2023/09/13 11:53:14;;;;;;;0.25;0.10;;;33.10;54.20;;;;;;5001233;28;20061;-76
2023/09/13 11:55:53;;;;;;;1.23;0.50;;;33.20;53.90;;;;;;5018822;28;20061;-76
2023/09/13 11:58:32;;;;;;;0.17;0.13;;;33.10;53.80;;;;;;4985176;28;20064;-76
2023/09/13 12:01:03;;;;;;;0.35;0.35;;;32.80;53.50;;;;;;5016232;28;20025;-76
2023/09/13 12:03:41;;;;;;;0.00;0.00;;;32.70;54.30;;;;;;5018883;28;20044;-76
2023/09/13 12:06:08;;;;;;;0.38;0.10;;;30.40;53.40;;;;;;5018339;28;20079;-76
2023/09/13 12:08:39;;;;;;;21.38;12.30;;;32.70;55.90;;;;;;5000652;28;20088;-76
2023/09/13 12:11:07;;;;;;;0.35;0.20;;;32.90;55.20;;;;;;5016348;28;20037;-76
2023/09/13 12:13:47;;;;;;;0.47;0.47;;;33.00;54.40;;;;;;5016957;28;20633;-76
2023/09/13 12:16:14;;;;;;;0.20;0.20;;;33.30;54.60;;;;;;5016483;28;20094;-76
2023/09/13 12:18:42;;;;;;;1.13;0.80;;;33.30;54.10;;;;;;4985339;28;20092;-76
2023/09/13 12:21:09;;;;;;;0.80;0.73;;;33.70;55.50;;;;;;5035232;28;20338;-75
2023/09/13 12:23:37;;;;;;;0.00;0.00;;;33.90;53.30;;;;;;5058874;28;20325;-76
2023/09/13 12:26:05;;;;;;;0.10;0.10;;;33.70;53.10;;;;;;5047811;28;20048;-75
2023/09/13 12:28:36;;;;;;;0.63;0.47;;;33.60;54.00;;;;;;5071107;28;20075;-76
2023/09/13 12:31:16;;;;;;;0.00;0.00;;;33.40;53.40;;;;;;5049648;28;20037;-76
2023/09/13 12:33:49;;;;;;;0.63;0.63;;;33.50;52.80;;;;;;5074067;28;20077;-77
2023/09/13 12:36:18;;;;;;;0.20;0.20;;;33.90;53.80;;;;;;5072466;28;20081;-76
2023/09/13 12:38:44;;;;;;;0.38;0.38;;;33.80;52.80;;;;;;5052314;28;20402;-75
2023/09/13 12:41:16;;;;;;;0.10;0.10;;;33.80;52.60;;;;;;5080344;28;20020;-77
2023/09/13 12:43:45;;;;;;;0.00;0.00;;;33.90;53.90;;;;;;5087883;28;20067;-76
2023/09/13 12:46:23;;;;;;;0.38;0.20;;;34.20;52.10;;;;;;5067659;28;20017;-76
2023/09/13 12:48:54;;;;;;;0.10;0.10;;;34.20;52.40;;;;;;5088754;28;20024;-76
2023/09/13 12:51:23;;;;;;;0.10;0.10;;;34.50;52.50;;;;;;5074628;28;20032;-75
2023/09/13 12:53:52;;;;;;;0.00;0.00;;;34.60;52.60;;;;;;5047424;28;20340;-77